Anchorage

Airport
ICAO code: 
PANC
Summary
ICAO Region: 
NAM
Territory: 
Location: 
Anchorage, Alaska,
Coordinates: 
Aerial View: 
61° 10' 51.359" N, 150° 0' 15.655" W
Airport CFIT: 
Altimeter Temperature Error Correction
Airport RI: 
Runway Misidentification
Airport WX: 
Volcanic Ash
Metar
Observation
PANC 191253Z 02005KT 10SM BKN041 OVC060 M06/M09 A2972 RMK AO2 SLP067 T10561094
Station
Anchorage, Ted Stevens Anchorage International Airport
Date/Time
2022-01-19 12:53:00
Wind direction
20°
Wind speed
05 kts
Lowest cloud amount
broken clouds
Temperature
-5.6°C
Dew point
-9.4°C
Humidity
74%
Weather condition
n/a

Description

International airport serving Anchorage.

Climatology

Cool continental climate/Subarctic climate (Köppen climate classification Dfc)

Runways

Designator Length Width Surface Rops
07L/25R 3231 46 ASP Yes/Yes
07R/25L 3322 46 ASP Yes/Yes
14/32 3531 46 ASP Yes/Yes
Airport map: 
Aerial View: 

Accidents and Serious Incidents at or in the vicinity of PANC

SKYbrary Partners:

Safety knowledge contributed by: